createdAt,value
2023-04-13T00:02:14.650Z,15.39
2023-04-13T00:04:41.307Z,15.40
2023-04-13T00:07:07.845Z,15.33
2023-04-13T00:09:34.515Z,15.76
2023-04-13T00:12:01.072Z,15.92
2023-04-13T00:14:27.685Z,15.85
2023-04-13T00:16:54.279Z,15.69
2023-04-13T00:19:20.862Z,15.78
2023-04-13T00:21:47.492Z,15.68
2023-04-13T00:24:14.376Z,15.80
2023-04-13T00:26:40.942Z,15.81
2023-04-13T00:29:07.514Z,16.01
2023-04-13T00:31:34.174Z,16.02
2023-04-13T00:34:00.784Z,15.84
2023-04-13T00:36:27.380Z,15.98
2023-04-13T00:38:53.928Z,15.74
2023-04-13T00:41:20.520Z,15.42
2023-04-13T00:43:47.187Z,15.07
2023-04-13T00:46:13.812Z,15.18
2023-04-13T00:48:40.384Z,15.54
2023-04-13T00:51:06.973Z,15.61
2023-04-13T00:53:33.531Z,15.68
2023-04-13T00:56:00.142Z,15.46
2023-04-13T00:58:26.712Z,15.61
2023-04-13T01:00:53.297Z,15.67
2023-04-13T01:03:20.179Z,15.86
2023-04-13T01:05:46.793Z,15.89
2023-04-13T01:08:13.331Z,15.88
2023-04-13T01:10:39.918Z,15.98
2023-04-13T01:13:06.473Z,15.87
2023-04-13T01:15:33.090Z,16.04
2023-04-13T01:17:59.746Z,15.97
2023-04-13T01:20:26.408Z,15.99
2023-04-13T01:22:53.010Z,16.01
2023-04-13T01:25:19.573Z,15.88
2023-04-13T01:27:46.129Z,15.96
2023-04-13T01:30:13.044Z,15.93
2023-04-13T01:32:39.684Z,15.85
2023-04-13T01:35:06.217Z,15.96
2023-04-13T01:37:32.784Z,15.86
2023-04-13T01:39:59.451Z,15.79
2023-04-13T01:42:26.034Z,15.81
2023-04-13T01:44:52.577Z,15.67
2023-04-13T01:47:19.221Z,15.68
2023-04-13T01:49:45.805Z,15.39
2023-04-13T01:52:12.417Z,14.97
2023-04-13T01:54:38.985Z,14.88
2023-04-13T01:57:05.592Z,14.95
2023-04-13T01:59:32.204Z,15.21
2023-04-13T02:01:58.791Z,15.31
2023-04-13T02:04:25.403Z,15.16
2023-04-13T02:06:51.999Z,15.12
2023-04-13T02:09:18.598Z,15.12
2023-04-13T02:11:45.172Z,15.27
2023-04-13T02:14:11.734Z,14.95
2023-04-13T02:16:38.333Z,14.82
2023-04-13T02:19:05.056Z,14.85
2023-04-13T02:21:31.644Z,14.96
2023-04-13T02:23:58.423Z,15.03
2023-04-13T02:26:25.150Z,15.02
2023-04-13T02:28:51.745Z,14.94
2023-04-13T02:31:18.323Z,15.08
2023-04-13T02:33:44.913Z,15.10
2023-04-13T02:36:11.478Z,15.28
2023-04-13T02:38:38.038Z,15.31
2023-04-13T02:41:04.888Z,15.35
2023-04-13T02:43:31.441Z,15.34
2023-04-13T02:45:58.078Z,15.27
2023-04-13T02:48:24.676Z,15.33
2023-04-13T02:50:51.262Z,15.37
2023-04-13T02:53:17.883Z,15.32
2023-04-13T02:55:44.582Z,15.36
2023-04-13T02:58:11.248Z,15.32
2023-04-13T03:00:37.780Z,15.25
2023-04-13T03:03:04.381Z,15.24
2023-04-13T03:05:38.539Z,15.27
2023-04-13T03:08:05.165Z,15.14
2023-04-13T03:10:31.852Z,14.83
2023-04-13T03:12:58.435Z,14.91
2023-04-13T03:15:25.007Z,15.06
2023-04-13T03:17:51.600Z,15.06
2023-04-13T03:20:18.343Z,14.94
2023-04-13T03:22:44.897Z,14.88
2023-04-13T03:25:11.446Z,14.79
2023-04-13T03:27:38.007Z,14.41
2023-04-13T03:30:04.544Z,14.41
2023-04-13T03:32:31.126Z,14.61
2023-04-13T03:34:57.733Z,14.60
2023-04-13T03:37:24.343Z,14.74
2023-04-13T03:39:50.883Z,14.88
2023-04-13T03:42:17.450Z,14.92
2023-04-13T03:44:44.025Z,14.99
2023-04-13T03:47:12.910Z,15.13
2023-04-13T03:49:39.465Z,15.14
2023-04-13T03:52:06.005Z,15.15
2023-04-13T03:54:32.616Z,15.03
2023-04-13T03:56:59.184Z,14.83
2023-04-13T03:59:25.750Z,14.80
2023-04-13T04:01:52.396Z,14.57
2023-04-13T04:04:19.193Z,14.63
2023-04-13T04:06:45.821Z,14.60
2023-04-13T04:09:12.402Z,14.69
2023-04-13T04:11:39.000Z,14.65
2023-04-13T04:14:05.553Z,14.67
2023-04-13T04:16:32.147Z,14.71
2023-04-13T04:18:58.897Z,14.86
2023-04-13T04:21:25.632Z,14.77
2023-04-13T04:23:52.282Z,14.74
2023-04-13T04:26:18.870Z,14.68
2023-04-13T04:28:45.464Z,14.49
2023-04-13T04:31:12.149Z,14.61
2023-04-13T04:33:38.789Z,14.39
2023-04-13T04:36:05.417Z,14.49
2023-04-13T04:38:32.314Z,14.54
2023-04-13T04:40:58.864Z,14.63
2023-04-13T04:43:25.598Z,14.67
2023-04-13T04:45:52.285Z,14.36
2023-04-13T04:48:19.024Z,14.41
2023-04-13T04:50:45.574Z,14.48
2023-04-13T04:53:12.140Z,14.02
2023-04-13T04:55:38.809Z,14.05
2023-04-13T04:58:05.374Z,14.03
2023-04-13T05:00:31.975Z,14.11
2023-04-13T05:02:58.710Z,14.06
2023-04-13T05:05:25.391Z,13.78
2023-04-13T05:07:51.990Z,13.91
2023-04-13T05:10:18.564Z,13.95
2023-04-13T05:12:45.237Z,14.01
2023-04-13T05:15:12.239Z,13.84
2023-04-13T05:17:38.822Z,13.75
2023-04-13T05:20:05.715Z,13.95
2023-04-13T05:22:32.365Z,14.08
2023-04-13T05:24:58.994Z,14.09
2023-04-13T05:27:25.566Z,14.33
2023-04-13T05:29:52.109Z,14.35
2023-04-13T05:32:18.713Z,14.29
2023-04-13T05:34:45.272Z,14.22
2023-04-13T05:37:11.848Z,14.38
2023-04-13T05:39:38.413Z,14.38
2023-04-13T05:42:05.000Z,14.20
2023-04-13T05:44:31.654Z,14.21
2023-04-13T05:46:58.290Z,14.07
2023-04-13T05:49:24.944Z,14.18
2023-04-13T05:51:51.500Z,13.98
2023-04-13T05:54:18.086Z,13.58
2023-04-13T05:56:44.685Z,13.65
2023-04-13T05:59:11.266Z,13.96
2023-04-13T06:01:37.930Z,13.99
2023-04-13T06:04:05.005Z,13.76
2023-04-13T06:06:31.790Z,13.99
2023-04-13T06:08:59.018Z,14.13
2023-04-13T06:11:25.765Z,14.36
2023-04-13T06:13:52.347Z,14.46
2023-04-13T06:16:21.050Z,14.36
2023-04-13T06:18:48.324Z,14.52
2023-04-13T06:21:15.094Z,14.61
2023-04-13T06:23:41.658Z,14.74
2023-04-13T06:26:08.290Z,14.56
2023-04-13T06:28:35.070Z,14.69
2023-04-13T06:31:02.067Z,14.70
2023-04-13T06:33:28.847Z,14.71
2023-04-13T06:35:55.418Z,14.74
2023-04-13T06:38:22.030Z,14.65
2023-04-13T06:40:48.601Z,14.60
2023-04-13T06:43:26.151Z,14.77
2023-04-13T06:45:55.545Z,14.71
2023-04-13T06:48:22.228Z,14.91
2023-04-13T06:50:48.926Z,14.97
2023-04-13T06:53:15.511Z,14.80
2023-04-13T06:55:42.079Z,14.79
2023-04-13T06:58:08.690Z,14.87
2023-04-13T07:00:35.361Z,15.02
2023-04-13T07:03:02.212Z,15.10
2023-04-13T07:05:28.990Z,15.01
2023-04-13T07:07:55.600Z,14.93
2023-04-13T07:10:22.237Z,14.76
2023-04-13T07:12:48.976Z,14.50
2023-04-13T07:15:15.752Z,14.80
2023-04-13T07:17:42.436Z,14.85
2023-04-13T07:20:09.027Z,14.64
2023-04-13T07:22:36.052Z,14.95
2023-04-13T07:25:02.667Z,15.06
2023-04-13T07:27:29.260Z,14.46
2023-04-13T07:29:55.863Z,14.83
2023-04-13T07:32:25.986Z,15.07
2023-04-13T07:34:57.069Z,15.31
2023-04-13T07:37:23.621Z,15.30
2023-04-13T07:39:50.225Z,14.99
2023-04-13T07:42:16.787Z,14.83
2023-04-13T07:44:43.363Z,14.77
2023-04-13T07:47:10.082Z,14.77
2023-04-13T07:49:36.717Z,14.82
2023-04-13T07:52:03.577Z,15.13
2023-04-13T07:54:30.339Z,14.99
2023-04-13T07:56:57.108Z,15.06
2023-04-13T07:59:25.170Z,15.31
2023-04-13T08:01:52.001Z,15.54
2023-04-13T08:04:18.713Z,15.72
2023-04-13T08:06:45.369Z,15.59
2023-04-13T08:09:11.942Z,15.68
2023-04-13T08:11:38.543Z,15.79
2023-04-13T08:14:05.142Z,15.91
2023-04-13T08:16:31.766Z,15.88
2023-04-13T08:18:58.643Z,15.79
2023-04-13T08:21:25.358Z,15.82
2023-04-13T08:23:51.948Z,15.95
2023-04-13T08:26:18.539Z,15.84
2023-04-13T08:28:45.181Z,15.90
2023-04-13T08:31:11.820Z,16.05
2023-04-13T08:33:38.447Z,16.20
2023-04-13T08:36:05.062Z,16.18
2023-04-13T08:38:31.635Z,16.23
2023-04-13T08:40:58.216Z,16.27
2023-04-13T08:43:24.889Z,16.29
2023-04-13T08:45:51.838Z,16.19
2023-04-13T08:48:18.489Z,16.17
2023-04-13T08:50:45.080Z,16.02
2023-04-13T08:53:11.684Z,16.19
2023-04-13T08:55:38.586Z,16.43
2023-04-13T08:58:05.173Z,16.34
2023-04-13T09:00:31.764Z,16.10
2023-04-13T09:03:04.473Z,15.95
2023-04-13T09:05:31.943Z,15.78
2023-04-13T09:07:58.540Z,16.26
2023-04-13T09:10:25.180Z,16.52
2023-04-13T09:12:52.186Z,16.70
2023-04-13T09:15:18.770Z,16.74
2023-04-13T09:17:45.397Z,16.74
2023-04-13T09:20:12.007Z,16.79
2023-04-13T09:22:38.953Z,16.79
2023-04-13T09:25:05.555Z,16.73
2023-04-13T09:27:32.102Z,16.81
2023-04-13T09:29:58.687Z,16.75
2023-04-13T09:32:25.349Z,16.62
2023-04-13T09:34:51.936Z,16.56
2023-04-13T09:37:18.751Z,16.45
2023-04-13T09:39:45.402Z,16.29
2023-04-13T09:42:12.004Z,16.29
2023-04-13T09:44:38.599Z,16.36
2023-04-13T09:47:05.193Z,16.27
2023-04-13T09:49:31.845Z,16.22
2023-04-13T09:51:58.788Z,16.32
2023-04-13T09:54:25.356Z,16.02
2023-04-13T09:56:52.639Z,16.03
2023-04-13T09:59:19.691Z,16.16
2023-04-13T10:01:46.661Z,16.11
2023-04-13T10:04:13.398Z,16.10
2023-04-13T10:06:40.015Z,16.33
2023-04-13T10:09:06.574Z,16.05
2023-04-13T10:11:33.166Z,15.93
2023-04-13T10:14:00.097Z,15.72
2023-04-13T10:16:26.994Z,15.87
2023-04-13T10:18:53.641Z,15.78
2023-04-13T10:21:20.198Z,15.35
2023-04-13T10:23:46.898Z,15.43
2023-04-13T10:26:13.583Z,15.83
2023-04-13T10:28:40.553Z,16.15
2023-04-13T10:31:08.351Z,16.42
2023-04-13T10:33:35.128Z,16.05
2023-04-13T10:36:01.707Z,15.96
2023-04-13T10:38:28.382Z,16.10
2023-04-13T10:40:54.980Z,16.07
2023-04-13T10:43:21.634Z,16.07
2023-04-13T10:45:48.235Z,16.10
2023-04-13T10:48:14.895Z,16.25
2023-04-13T10:50:41.512Z,16.21
2023-04-13T10:53:08.114Z,16.10
2023-04-13T10:55:34.739Z,15.67
2023-04-13T10:58:01.303Z,15.45
2023-04-13T11:00:38.301Z,15.29
2023-04-13T11:03:11.973Z,15.61
2023-04-13T11:05:38.605Z,15.80
2023-04-13T11:08:05.123Z,15.98
2023-04-13T11:10:31.816Z,16.28
2023-04-13T11:12:58.412Z,16.60
2023-04-13T11:15:25.138Z,16.80
2023-04-13T11:17:51.776Z,16.93
2023-04-13T11:20:18.446Z,17.02
2023-04-13T11:22:47.392Z,17.10
2023-04-13T11:25:14.325Z,17.17
2023-04-13T11:27:40.970Z,16.89
2023-04-13T11:30:07.609Z,16.86
2023-04-13T11:32:34.268Z,16.82
2023-04-13T11:35:03.566Z,16.67
2023-04-13T11:37:30.134Z,16.44
2023-04-13T11:39:56.710Z,16.32
2023-04-13T11:42:23.407Z,16.51
2023-04-13T11:44:50.049Z,16.59
2023-04-13T11:47:16.618Z,16.57
2023-04-13T11:49:43.276Z,16.35
2023-04-13T11:52:09.839Z,16.39
2023-04-13T11:54:36.441Z,16.64
2023-04-13T11:57:03.045Z,16.91
2023-04-13T11:59:29.638Z,17.08
2023-04-13T12:02:02.668Z,17.26
2023-04-13T12:04:30.671Z,17.41
2023-04-13T12:06:57.585Z,17.19
2023-04-13T12:09:40.069Z,17.03
2023-04-13T12:12:46.293Z,16.85
2023-04-13T12:15:15.339Z,17.09
2023-04-13T12:17:50.098Z,17.27
2023-04-13T12:20:23.508Z,17.38
2023-04-13T12:22:57.558Z,16.76
2023-04-13T12:25:35.432Z,16.32
2023-04-13T12:28:02.848Z,16.84
2023-04-13T12:30:29.434Z,17.13
2023-04-13T12:32:56.029Z,17.29
2023-04-13T12:35:22.785Z,17.32
2023-04-13T12:37:49.467Z,17.15
2023-04-13T12:40:16.071Z,17.19
2023-04-13T12:42:42.633Z,17.31
2023-04-13T12:45:09.411Z,17.11
2023-04-13T12:47:36.076Z,16.94
2023-04-13T12:50:02.804Z,17.04
2023-04-13T12:52:29.425Z,17.37
2023-04-13T12:54:56.099Z,17.44
2023-04-13T12:57:22.719Z,17.36
2023-04-13T12:59:49.288Z,17.41
2023-04-13T13:02:15.915Z,17.27
2023-04-13T13:04:42.624Z,16.63
2023-04-13T13:07:09.257Z,16.53
2023-04-13T13:09:35.820Z,16.61
2023-04-13T13:12:02.556Z,16.65
2023-04-13T13:14:30.441Z,16.68
2023-04-13T13:16:57.068Z,16.85
2023-04-13T13:19:23.652Z,16.98
2023-04-13T13:21:50.223Z,17.11
2023-04-13T13:24:16.806Z,17.04
2023-04-13T13:27:07.641Z,17.05
2023-04-13T13:29:30.009Z,16.86
2023-04-13T13:31:56.746Z,16.98
2023-04-13T13:34:23.393Z,16.83
2023-04-13T13:36:50.092Z,16.85
2023-04-13T13:39:16.658Z,17.07
2023-04-13T13:41:43.265Z,17.11
2023-04-13T13:44:09.873Z,17.05
2023-04-13T13:46:36.530Z,16.94
2023-04-13T13:49:03.436Z,16.96
2023-04-13T13:51:30.240Z,16.90
2023-04-13T13:53:56.846Z,16.85
2023-04-13T13:56:23.420Z,17.01
2023-04-13T13:58:50.019Z,17.12
2023-04-13T14:01:16.745Z,16.99
2023-04-13T14:03:43.558Z,16.86
2023-04-13T14:06:10.188Z,16.65
2023-04-13T14:08:36.791Z,16.61
2023-04-13T14:11:04.368Z,16.76
2023-04-13T14:13:30.976Z,16.83
2023-04-13T14:15:57.636Z,16.72
2023-04-13T14:18:24.322Z,16.53
2023-04-13T14:20:51.009Z,16.52
2023-04-13T14:23:18.633Z,16.63
2023-04-13T14:25:45.250Z,16.67
2023-04-13T14:28:11.814Z,16.45
2023-04-13T14:30:38.537Z,16.52
2023-04-13T14:33:05.167Z,16.44
2023-04-13T14:35:32.158Z,16.41
2023-04-13T14:37:58.748Z,16.33
2023-04-13T14:40:25.326Z,16.26
2023-04-13T14:42:51.941Z,16.11
2023-04-13T14:45:18.551Z,16.14
2023-04-13T14:47:45.208Z,16.04
2023-04-13T14:50:11.858Z,15.92
2023-04-13T14:52:38.440Z,15.90
2023-04-13T14:55:05.110Z,15.84
2023-04-13T14:57:31.700Z,16.02
2023-04-13T14:59:58.346Z,16.07
2023-04-13T15:02:25.135Z,16.12
2023-04-13T15:04:52.103Z,16.05
2023-04-13T15:07:18.889Z,15.83
2023-04-13T15:09:45.665Z,15.94
2023-04-13T15:12:13.760Z,16.06
2023-04-13T15:14:40.590Z,16.11
2023-04-13T15:17:07.315Z,16.15
2023-04-13T15:19:34.055Z,16.10
2023-04-13T15:22:00.680Z,15.87
2023-04-13T15:24:27.248Z,15.77
2023-04-13T15:26:53.948Z,15.88
2023-04-13T15:29:20.562Z,15.91
2023-04-13T15:31:47.133Z,15.98
2023-04-13T15:34:13.811Z,16.06
2023-04-13T15:36:40.391Z,15.98
2023-04-13T15:39:07.014Z,15.86
2023-04-13T15:41:33.594Z,15.90
2023-04-13T15:44:00.240Z,15.44
2023-04-13T15:46:26.881Z,15.14
2023-04-13T15:48:53.472Z,15.29
2023-04-13T15:51:22.622Z,15.51
2023-04-13T15:53:50.133Z,15.65
2023-04-13T15:56:16.743Z,15.67
2023-04-13T15:58:43.401Z,15.60
2023-04-13T16:01:10.378Z,15.15
2023-04-13T16:03:37.227Z,15.14
2023-04-13T16:06:06.325Z,15.30
2023-04-13T16:08:32.993Z,15.25
2023-04-13T16:10:59.675Z,15.27
2023-04-13T16:13:34.650Z,15.40
2023-04-13T16:16:08.028Z,15.26
2023-04-13T16:18:34.752Z,15.31
2023-04-13T16:21:01.438Z,15.40
2023-04-13T16:23:31.149Z,15.47
2023-04-13T16:25:57.745Z,15.45
2023-04-13T16:28:24.369Z,15.00
2023-04-13T16:30:50.989Z,15.00
2023-04-13T16:33:17.750Z,15.06
2023-04-13T16:35:44.573Z,15.02
2023-04-13T16:38:11.142Z,14.98
2023-04-13T16:40:38.261Z,14.87
2023-04-13T16:43:04.852Z,14.82
2023-04-13T16:45:31.491Z,14.76
2023-04-13T16:47:58.261Z,14.90
2023-04-13T16:50:25.303Z,15.06
2023-04-13T16:52:51.932Z,15.05
2023-04-13T16:55:18.547Z,15.04
2023-04-13T16:57:45.160Z,14.97
2023-04-13T17:00:11.749Z,14.93
2023-04-13T17:02:38.496Z,15.04
2023-04-13T17:05:05.359Z,15.15
2023-04-13T17:07:32.025Z,15.13
2023-04-13T17:09:58.694Z,15.09
2023-04-13T17:12:25.403Z,14.91
2023-04-13T17:14:52.041Z,14.93
2023-04-13T17:17:18.706Z,14.89
2023-04-13T17:19:45.287Z,14.90
2023-04-13T17:22:14.926Z,14.95
2023-04-13T17:24:41.573Z,14.76
2023-04-13T17:27:08.153Z,14.75
2023-04-13T17:29:35.458Z,14.88
2023-04-13T17:32:02.138Z,14.80
2023-04-13T17:34:28.852Z,14.68
2023-04-13T17:36:55.995Z,14.78
2023-04-13T17:39:22.600Z,14.85
2023-04-13T17:41:49.333Z,14.83
2023-04-13T17:44:15.903Z,14.79
2023-04-13T17:46:42.503Z,14.66
2023-04-13T17:49:09.488Z,14.60
2023-04-13T17:51:36.134Z,14.62
2023-04-13T17:54:02.861Z,14.51
2023-04-13T17:56:29.480Z,14.37
2023-04-13T17:58:56.123Z,14.37
2023-04-13T18:01:22.843Z,14.47
2023-04-13T18:03:49.630Z,14.48
2023-04-13T18:06:16.325Z,14.38
2023-04-13T18:08:42.999Z,14.36
2023-04-13T18:11:09.778Z,14.34
2023-04-13T18:13:36.611Z,14.40
2023-04-13T18:16:03.281Z,14.59
2023-04-13T18:18:29.910Z,14.45
2023-04-13T18:20:56.776Z,14.40
2023-04-13T18:23:23.467Z,14.48
2023-04-13T18:25:50.064Z,14.47
2023-04-13T18:28:16.701Z,14.35
2023-04-13T18:30:43.366Z,14.38
2023-04-13T18:33:09.967Z,14.32
2023-04-13T18:35:36.633Z,14.27
2023-04-13T18:38:03.226Z,14.27
2023-04-13T18:40:29.884Z,14.31
2023-04-13T18:42:56.508Z,14.29
2023-04-13T18:45:23.121Z,14.27
2023-04-13T18:47:49.817Z,14.22
2023-04-13T18:50:16.442Z,14.29
2023-04-13T18:52:43.291Z,14.09
2023-04-13T18:55:09.880Z,14.15
2023-04-13T18:57:36.893Z,14.30
2023-04-13T19:00:03.501Z,14.34
2023-04-13T19:02:30.296Z,14.38
2023-04-13T19:04:57.174Z,14.34
2023-04-13T19:07:23.880Z,14.25
2023-04-13T19:09:50.583Z,14.13
2023-04-13T19:12:17.208Z,14.03
2023-04-13T19:14:43.833Z,14.04
2023-04-13T19:17:11.945Z,13.96
2023-04-13T19:19:38.632Z,13.74
2023-04-13T19:22:05.327Z,13.72
2023-04-13T19:24:31.918Z,13.76
2023-04-13T19:26:58.598Z,13.81
2023-04-13T19:29:25.229Z,13.88
2023-04-13T19:31:52.010Z,13.86
2023-04-13T19:34:18.765Z,13.97
2023-04-13T19:36:45.546Z,14.02
2023-04-13T19:39:12.162Z,14.12
2023-04-13T19:41:38.737Z,13.95
2023-04-13T19:44:05.336Z,13.96
2023-04-13T19:46:32.208Z,13.99
2023-04-13T19:48:58.989Z,14.02
2023-04-13T19:51:25.653Z,14.05
2023-04-13T19:53:52.263Z,14.08
2023-04-13T19:56:18.931Z,14.06
2023-04-13T19:58:45.599Z,14.03
2023-04-13T20:01:12.509Z,13.97
2023-04-13T20:03:39.718Z,13.78
2023-04-13T20:06:07.591Z,13.77
2023-04-13T20:08:34.297Z,13.79
2023-04-13T20:11:00.894Z,13.85
2023-04-13T20:13:27.654Z,13.76
2023-04-13T20:15:54.349Z,13.68
2023-04-13T20:18:21.011Z,13.40
2023-04-13T20:20:47.687Z,13.47
2023-04-13T20:23:14.275Z,13.71
2023-04-13T20:25:40.886Z,13.76
2023-04-13T20:28:07.542Z,13.80
2023-04-13T20:30:34.240Z,13.75
2023-04-13T20:33:00.874Z,13.74
2023-04-13T20:35:27.564Z,13.85
2023-04-13T20:37:54.162Z,13.72
2023-04-13T20:40:20.803Z,13.61
2023-04-13T20:42:47.417Z,13.50
2023-04-13T20:45:14.113Z,13.55
2023-04-13T20:47:40.819Z,13.65
2023-04-13T20:50:07.429Z,13.48
2023-04-13T20:52:34.014Z,13.50
2023-04-13T20:55:00.652Z,13.48
2023-04-13T20:57:27.308Z,13.46
2023-04-13T20:59:53.878Z,13.34
2023-04-13T21:02:20.584Z,13.29
2023-04-13T21:04:47.247Z,12.90
2023-04-13T21:07:13.885Z,13.04
2023-04-13T21:09:40.619Z,13.02
2023-04-13T21:12:07.315Z,13.10
2023-04-13T21:14:33.930Z,13.16
2023-04-13T21:17:00.530Z,13.18
2023-04-13T21:19:27.131Z,13.11
2023-04-13T21:21:53.819Z,13.05
2023-04-13T21:24:20.448Z,12.93
2023-04-13T21:26:47.039Z,12.69
2023-04-13T21:29:13.733Z,12.11
2023-04-13T21:31:40.343Z,12.02
2023-04-13T21:34:06.957Z,12.36
2023-04-13T21:39:03.548Z,12.55
2023-04-13T21:41:30.125Z,12.41
2023-04-13T21:43:56.825Z,12.41
2023-04-13T21:46:23.499Z,12.39
2023-04-13T21:48:50.243Z,12.10
2023-04-13T21:51:16.875Z,12.07
2023-04-13T21:53:43.492Z,11.88
2023-04-13T21:56:10.078Z,11.57
2023-04-13T21:58:36.722Z,11.67
2023-04-13T22:01:03.412Z,11.64
2023-04-13T22:03:30.320Z,11.45
2023-04-13T22:05:57.058Z,11.47
2023-04-13T22:08:23.665Z,11.38
2023-04-13T22:10:50.271Z,11.69
2023-04-13T22:13:16.945Z,11.71
2023-04-13T22:15:43.670Z,11.32
2023-04-13T22:18:10.331Z,11.27
2023-04-13T22:20:37.005Z,10.78
2023-04-13T22:23:03.635Z,11.11
2023-04-13T22:25:30.249Z,11.03
2023-04-13T22:27:56.970Z,10.83
2023-04-13T22:30:24.130Z,10.94
2023-04-13T22:32:50.824Z,10.82
2023-04-13T22:35:17.643Z,10.80
2023-04-13T22:37:44.235Z,11.07
2023-04-13T22:40:10.981Z,11.12
2023-04-13T22:42:37.572Z,11.04
2023-04-13T22:45:04.484Z,10.61
2023-04-13T22:47:31.100Z,10.61
2023-04-13T22:49:57.883Z,10.11
2023-04-13T22:52:24.879Z,9.75
2023-04-13T22:54:51.441Z,9.54
2023-04-13T22:57:18.026Z,10.04
2023-04-13T22:59:44.628Z,10.17
2023-04-13T23:02:11.436Z,9.94
2023-04-13T23:04:38.206Z,9.77
2023-04-13T23:07:04.857Z,9.85
2023-04-13T23:09:31.488Z,9.81
2023-04-13T23:11:58.081Z,9.82
2023-04-13T23:14:24.741Z,9.96
2023-04-13T23:16:51.373Z,10.09
2023-04-13T23:19:17.994Z,10.10
2023-04-13T23:21:44.601Z,9.93
2023-04-13T23:24:11.251Z,10.08
2023-04-13T23:26:37.916Z,9.92
2023-04-13T23:29:04.575Z,9.78
2023-04-13T23:31:31.966Z,9.98
2023-04-13T23:33:58.638Z,9.76
2023-04-13T23:36:25.308Z,10.01
2023-04-13T23:38:52.079Z,10.16
2023-04-13T23:41:19.161Z,10.22
2023-04-13T23:43:46.082Z,10.16
2023-04-13T23:46:12.757Z,10.05
2023-04-13T23:48:39.521Z,10.33
2023-04-13T23:51:06.101Z,10.44
2023-04-13T23:53:32.858Z,10.04
2023-04-13T23:55:59.452Z,10.01
2023-04-13T23:58:26.028Z,9.94
